createdAt,value
2017-07-31T00:02:25.095Z,49.00
2017-07-31T00:04:53.356Z,49.30
2017-07-31T00:07:21.672Z,49.50
2017-07-31T00:09:49.909Z,49.60
2017-07-31T00:12:18.187Z,49.60
2017-07-31T00:14:46.440Z,49.80
2017-07-31T00:17:14.667Z,50.10
2017-07-31T00:19:42.948Z,49.90
2017-07-31T00:22:11.180Z,50.10
2017-07-31T00:24:39.415Z,49.80
2017-07-31T00:27:07.680Z,49.80
2017-07-31T00:29:35.917Z,49.90
2017-07-31T00:32:04.157Z,49.90
2017-07-31T00:34:32.432Z,49.90
2017-07-31T00:37:01.220Z,49.80
2017-07-31T00:39:29.733Z,49.80
2017-07-31T00:41:58.035Z,49.80
2017-07-31T00:44:26.663Z,50.20
2017-07-31T00:46:55.175Z,50.20
2017-07-31T00:49:23.457Z,50.50
2017-07-31T00:51:51.731Z,50.70
2017-07-31T00:54:19.975Z,50.40
2017-07-31T00:56:48.236Z,50.20
2017-07-31T00:59:16.475Z,50.70
2017-07-31T01:01:44.707Z,50.70
2017-07-31T01:04:12.962Z,50.50
2017-07-31T01:06:41.235Z,50.40
2017-07-31T01:09:09.472Z,50.20
2017-07-31T01:11:38.133Z,50.20
2017-07-31T01:14:06.373Z,50.20
2017-07-31T01:16:34.600Z,50.20
2017-07-31T01:19:02.873Z,50.10
2017-07-31T01:21:31.104Z,50.50
2017-07-31T01:23:59.345Z,50.50
2017-07-31T01:26:27.628Z,50.70
2017-07-31T01:28:55.867Z,50.80
2017-07-31T01:31:24.099Z,50.80
2017-07-31T01:33:52.520Z,50.40
2017-07-31T01:36:20.747Z,50.50
2017-07-31T01:38:48.975Z,50.80
2017-07-31T01:41:17.253Z,50.80
2017-07-31T01:43:45.481Z,50.80
2017-07-31T01:46:13.734Z,50.90
2017-07-31T01:48:42.005Z,50.90
2017-07-31T01:51:10.672Z,50.90
2017-07-31T01:53:38.905Z,51.10
2017-07-31T01:56:08.165Z,51.20
2017-07-31T01:58:36.719Z,51.40
2017-07-31T02:01:06.940Z,51.50
2017-07-31T02:03:35.231Z,51.50
2017-07-31T02:06:03.680Z,51.50
2017-07-31T02:08:31.991Z,51.50
2017-07-31T02:11:00.224Z,51.50
2017-07-31T02:13:28.476Z,51.20
2017-07-31T02:15:57.209Z,51.40
2017-07-31T02:18:25.441Z,51.20
2017-07-31T02:20:53.675Z,51.40
2017-07-31T02:23:21.940Z,51.20
2017-07-31T02:25:50.181Z,51.10
2017-07-31T02:28:18.441Z,51.10
2017-07-31T02:30:46.726Z,50.90
2017-07-31T02:33:14.967Z,51.20
2017-07-31T02:35:43.893Z,50.80
2017-07-31T02:38:12.197Z,50.80
2017-07-31T02:40:40.433Z,51.70
2017-07-31T02:43:08.660Z,51.80
2017-07-31T02:45:37.455Z,51.80
2017-07-31T02:48:05.689Z,51.80
2017-07-31T02:50:33.920Z,52.00
2017-07-31T02:53:02.207Z,53.00
2017-07-31T02:55:30.464Z,54.20
2017-07-31T02:57:58.706Z,55.20
2017-07-31T03:00:27.092Z,55.80
2017-07-31T03:02:55.327Z,56.40
2017-07-31T03:05:23.582Z,57.00
2017-07-31T03:07:52.238Z,57.40
2017-07-31T03:10:20.487Z,57.40
2017-07-31T03:12:48.727Z,57.00
2017-07-31T03:15:17.228Z,56.60
2017-07-31T03:17:45.496Z,56.40
2017-07-31T03:20:13.782Z,55.80
2017-07-31T03:22:42.062Z,56.00
2017-07-31T03:25:10.583Z,56.40
2017-07-31T03:27:38.909Z,57.20
2017-07-31T03:30:07.168Z,57.30
2017-07-31T03:32:35.423Z,56.30
2017-07-31T03:35:03.685Z,56.30
2017-07-31T03:37:31.962Z,55.80
2017-07-31T03:40:00.195Z,55.50
2017-07-31T03:42:28.437Z,55.70
2017-07-31T03:44:56.715Z,56.40
2017-07-31T03:47:24.978Z,57.40
2017-07-31T03:49:53.278Z,57.20
2017-07-31T03:52:21.565Z,57.30
2017-07-31T03:54:49.799Z,57.60
2017-07-31T03:57:18.039Z,57.60
2017-07-31T03:59:46.452Z,57.20
2017-07-31T04:02:14.693Z,57.40
2017-07-31T04:04:42.939Z,57.40
2017-07-31T04:07:11.371Z,58.80
2017-07-31T04:09:39.632Z,60.00
2017-07-31T04:12:07.867Z,61.30
2017-07-31T04:14:36.127Z,61.90
2017-07-31T04:17:04.371Z,61.50
2017-07-31T04:19:32.619Z,62.60
2017-07-31T04:22:01.200Z,63.70
2017-07-31T04:24:29.480Z,64.00
2017-07-31T04:26:57.722Z,64.40
2017-07-31T04:29:26.393Z,64.20
2017-07-31T04:31:55.027Z,64.40
2017-07-31T04:34:23.459Z,64.40
2017-07-31T04:36:52.107Z,64.00
2017-07-31T04:39:20.352Z,64.00
2017-07-31T04:41:48.593Z,64.80
2017-07-31T04:44:17.267Z,64.90
2017-07-31T04:46:45.492Z,64.90
2017-07-31T04:49:13.736Z,64.80
2017-07-31T04:51:42.157Z,65.10
2017-07-31T04:54:10.393Z,66.00
2017-07-31T04:56:38.636Z,66.70
2017-07-31T04:59:06.901Z,66.70
2017-07-31T05:01:35.156Z,66.90
2017-07-31T05:04:03.397Z,67.10
2017-07-31T05:06:32.244Z,67.40
2017-07-31T05:09:00.480Z,67.30
2017-07-31T05:11:28.926Z,67.80
2017-07-31T05:13:57.201Z,67.80
2017-07-31T05:16:25.849Z,67.10
2017-07-31T05:18:54.097Z,67.10
2017-07-31T05:21:22.528Z,66.90
2017-07-31T05:23:50.768Z,68.70
2017-07-31T05:26:19.016Z,69.10
2017-07-31T05:28:47.280Z,69.10
2017-07-31T05:31:15.925Z,69.40
2017-07-31T05:33:44.418Z,69.40
2017-07-31T05:36:12.687Z,70.30
2017-07-31T05:38:40.960Z,71.60
2017-07-31T05:41:09.183Z,71.80
2017-07-31T05:43:37.565Z,71.60
2017-07-31T05:46:06.184Z,71.00
2017-07-31T05:48:34.421Z,71.00
2017-07-31T05:51:02.700Z,71.40
2017-07-31T05:53:31.344Z,71.20
2017-07-31T05:55:59.579Z,70.10
2017-07-31T05:58:28.036Z,68.50
2017-07-31T06:00:56.712Z,66.90
2017-07-31T06:03:25.345Z,65.70
2017-07-31T06:05:53.638Z,65.70
2017-07-31T06:08:21.892Z,64.60
2017-07-31T06:10:50.132Z,63.90
2017-07-31T06:13:18.506Z,63.30
2017-07-31T06:15:46.790Z,62.40
2017-07-31T06:18:15.062Z,61.20
2017-07-31T06:20:43.406Z,60.10
2017-07-31T06:23:11.659Z,58.30
2017-07-31T06:25:39.907Z,58.60
2017-07-31T06:28:08.197Z,57.30
2017-07-31T06:30:36.425Z,56.00
2017-07-31T06:33:04.748Z,55.80
2017-07-31T06:35:33.186Z,55.20
2017-07-31T06:38:01.425Z,54.60
2017-07-31T06:40:29.681Z,53.00
2017-07-31T06:42:58.185Z,52.40
2017-07-31T06:45:26.432Z,51.10
2017-07-31T06:47:55.681Z,50.50
2017-07-31T06:50:23.964Z,50.40
2017-07-31T06:52:52.587Z,47.70
2017-07-31T06:55:20.865Z,47.70
2017-07-31T06:57:49.113Z,45.30
2017-07-31T07:00:17.347Z,45.30
2017-07-31T07:02:45.583Z,45.60
2017-07-31T07:05:13.876Z,45.90
2017-07-31T07:07:42.104Z,45.90
2017-07-31T07:10:10.736Z,45.60
2017-07-31T07:12:39.532Z,45.60
2017-07-31T07:15:07.777Z,44.60
2017-07-31T07:17:36.004Z,44.30
2017-07-31T07:20:04.257Z,44.70
2017-07-31T07:22:32.488Z,44.70
2017-07-31T07:25:00.720Z,43.30
2017-07-31T07:27:29.032Z,42.80
2017-07-31T07:29:57.669Z,42.70
2017-07-31T07:32:25.909Z,42.70
2017-07-31T07:34:54.593Z,41.90
2017-07-31T07:37:22.835Z,41.90
2017-07-31T07:39:51.068Z,40.70
2017-07-31T07:42:19.329Z,41.80
2017-07-31T07:44:47.561Z,45.30
2017-07-31T07:47:15.788Z,45.60
2017-07-31T07:49:44.098Z,44.60
2017-07-31T07:52:12.317Z,43.40
2017-07-31T07:54:40.554Z,43.10
2017-07-31T07:57:08.820Z,42.50
2017-07-31T07:59:37.054Z,42.10
2017-07-31T08:02:05.279Z,41.20
2017-07-31T08:04:33.649Z,40.60
2017-07-31T08:07:02.277Z,39.30
2017-07-31T08:09:30.524Z,38.40
2017-07-31T08:11:58.962Z,38.80
2017-07-31T08:14:27.211Z,38.20
2017-07-31T08:16:55.455Z,37.90
2017-07-31T08:19:23.899Z,37.40
2017-07-31T08:21:52.120Z,36.60
2017-07-31T08:26:48.620Z,35.40
2017-07-31T08:29:16.911Z,35.30
2017-07-31T08:31:45.132Z,34.20
2017-07-31T08:34:14.067Z,32.90
2017-07-31T08:36:42.349Z,32.90
2017-07-31T08:39:10.608Z,33.10
2017-07-31T08:41:39.050Z,32.50
2017-07-31T08:44:07.345Z,33.50
2017-07-31T08:46:35.588Z,33.50
2017-07-31T08:49:04.036Z,33.10
2017-07-31T08:51:32.293Z,32.20
2017-07-31T08:54:00.533Z,33.70
2017-07-31T08:56:29.375Z,33.50
2017-07-31T08:58:57.728Z,33.50
2017-07-31T09:01:25.958Z,33.40
2017-07-31T09:03:54.248Z,33.50
2017-07-31T09:06:22.615Z,33.10
2017-07-31T09:08:50.909Z,31.60
2017-07-31T09:11:19.735Z,30.30
2017-07-31T09:13:47.999Z,30.30
2017-07-31T09:16:16.266Z,30.60
2017-07-31T09:18:44.596Z,30.70
2017-07-31T09:21:12.849Z,31.10
2017-07-31T09:23:41.147Z,30.70
2017-07-31T09:26:09.401Z,30.30
2017-07-31T09:28:37.661Z,29.80
2017-07-31T09:31:05.912Z,30.30
2017-07-31T09:33:34.245Z,29.60
2017-07-31T09:36:02.501Z,28.90
2017-07-31T09:38:31.099Z,28.80
2017-07-31T09:40:59.524Z,28.80
2017-07-31T09:43:28.162Z,28.90
2017-07-31T09:45:56.401Z,28.90
2017-07-31T09:48:24.709Z,28.30
2017-07-31T09:50:53.006Z,28.90
2017-07-31T09:53:21.662Z,26.90
2017-07-31T09:55:49.952Z,26.90
2017-07-31T09:58:18.201Z,26.90
2017-07-31T10:00:46.432Z,27.40
2017-07-31T10:03:14.699Z,27.50
2017-07-31T10:05:42.939Z,27.40
2017-07-31T10:08:11.177Z,27.70
2017-07-31T10:10:39.513Z,28.20
2017-07-31T10:13:07.753Z,28.60
2017-07-31T10:15:36.005Z,28.50
2017-07-31T10:18:04.287Z,28.50
2017-07-31T10:20:32.531Z,28.10
2017-07-31T10:23:00.757Z,28.00
2017-07-31T10:25:29.461Z,28.20
2017-07-31T10:27:57.716Z,28.50
2017-07-31T10:30:25.959Z,28.30
2017-07-31T10:32:54.243Z,28.80
2017-07-31T10:35:22.888Z,28.40
2017-07-31T10:37:51.138Z,28.40
2017-07-31T10:40:19.439Z,28.00
2017-07-31T10:42:47.690Z,28.00
2017-07-31T10:45:15.934Z,27.70
2017-07-31T10:47:44.201Z,27.20
2017-07-31T10:50:12.824Z,26.40
2017-07-31T10:52:41.077Z,26.30
2017-07-31T10:55:09.760Z,25.90
2017-07-31T10:57:38.021Z,25.90
2017-07-31T11:00:06.646Z,26.30
2017-07-31T11:02:35.064Z,26.30
2017-07-31T11:05:03.307Z,26.00
2017-07-31T11:07:31.548Z,26.10
2017-07-31T11:10:00.277Z,25.10
2017-07-31T11:12:28.567Z,25.10
2017-07-31T11:14:56.857Z,24.40
2017-07-31T11:17:25.241Z,25.20
2017-07-31T11:19:53.512Z,25.60
2017-07-31T11:22:21.762Z,25.40
2017-07-31T11:24:50.242Z,25.00
2017-07-31T11:27:18.738Z,24.80
2017-07-31T11:29:46.964Z,25.40
2017-07-31T11:32:15.259Z,24.80
2017-07-31T11:34:43.498Z,24.00
2017-07-31T11:37:11.728Z,25.10
2017-07-31T11:39:40.016Z,25.30
2017-07-31T11:42:08.280Z,23.70
2017-07-31T11:44:36.513Z,24.20
2017-07-31T11:47:04.880Z,24.20
2017-07-31T11:49:33.125Z,24.20
2017-07-31T11:52:01.380Z,24.10
2017-07-31T11:54:29.660Z,24.30
2017-07-31T11:56:57.903Z,23.10
2017-07-31T11:59:26.152Z,23.00
2017-07-31T12:01:54.803Z,23.90
2017-07-31T12:04:23.048Z,23.90
2017-07-31T12:06:51.289Z,24.10
2017-07-31T12:09:19.943Z,22.40
2017-07-31T12:11:48.280Z,22.40
2017-07-31T12:14:16.524Z,22.40
2017-07-31T12:16:44.787Z,23.50
2017-07-31T12:19:13.149Z,23.00
2017-07-31T12:21:41.374Z,21.20
2017-07-31T12:24:09.662Z,20.90
2017-07-31T12:26:38.679Z,21.80
2017-07-31T12:29:07.506Z,22.30
2017-07-31T12:31:35.761Z,21.90
2017-07-31T12:34:03.993Z,22.30
2017-07-31T12:36:32.325Z,22.60
2017-07-31T12:39:00.652Z,22.70
2017-07-31T12:41:28.909Z,22.80
2017-07-31T12:43:57.155Z,22.40
2017-07-31T12:46:26.030Z,22.30
2017-07-31T12:48:54.275Z,22.30
2017-07-31T12:51:22.585Z,21.50
2017-07-31T12:53:50.970Z,22.10
2017-07-31T12:56:19.251Z,23.20
2017-07-31T12:58:47.492Z,21.90
2017-07-31T13:01:15.872Z,22.80
2017-07-31T13:03:44.112Z,22.80
2017-07-31T13:06:13.559Z,23.30
2017-07-31T13:08:41.803Z,23.90
2017-07-31T13:11:10.821Z,23.20
2017-07-31T13:13:39.061Z,23.00
2017-07-31T13:16:07.464Z,22.90
2017-07-31T13:18:35.697Z,23.30
2017-07-31T13:21:03.956Z,23.30
2017-07-31T13:23:32.359Z,23.40
2017-07-31T13:26:00.996Z,23.40
2017-07-31T13:28:29.233Z,23.40
2017-07-31T13:30:57.515Z,22.40
2017-07-31T13:33:25.745Z,22.80
2017-07-31T13:35:54.225Z,23.10
2017-07-31T13:38:22.497Z,22.50
2017-07-31T13:40:50.739Z,22.80
2017-07-31T13:43:19.031Z,22.90
2017-07-31T13:45:47.293Z,22.30
2017-07-31T13:48:15.569Z,23.20
2017-07-31T13:50:44.030Z,22.90
2017-07-31T13:53:12.296Z,22.80
2017-07-31T13:55:40.533Z,23.30
2017-07-31T13:58:08.785Z,23.60
2017-07-31T14:00:37.186Z,24.50
2017-07-31T14:03:05.434Z,24.20
2017-07-31T14:05:33.699Z,23.50
2017-07-31T14:08:02.011Z,23.60
2017-07-31T14:10:30.247Z,23.30
2017-07-31T14:12:58.487Z,23.40
2017-07-31T14:15:27.312Z,23.70
2017-07-31T14:17:55.554Z,23.70
2017-07-31T14:20:23.797Z,23.80
2017-07-31T14:22:52.086Z,23.30
2017-07-31T14:25:21.358Z,25.10
2017-07-31T14:27:49.588Z,25.10
2017-07-31T14:30:18.541Z,24.80
2017-07-31T14:32:46.822Z,24.90
2017-07-31T14:35:15.044Z,25.40
2017-07-31T14:37:43.359Z,25.50
2017-07-31T14:40:11.643Z,25.30
2017-07-31T14:42:40.410Z,25.30
2017-07-31T14:45:08.900Z,25.20
2017-07-31T14:47:37.154Z,25.10
2017-07-31T14:50:05.391Z,25.10
2017-07-31T14:52:34.064Z,24.70
2017-07-31T14:55:02.498Z,24.70
2017-07-31T14:57:30.768Z,25.00
2017-07-31T14:59:59.034Z,25.60
2017-07-31T15:02:27.351Z,26.00
2017-07-31T15:04:55.587Z,26.00
2017-07-31T15:07:23.875Z,26.70
2017-07-31T15:09:52.123Z,27.00
2017-07-31T15:12:20.869Z,27.60
2017-07-31T15:14:49.437Z,27.60
2017-07-31T15:17:17.698Z,27.30
2017-07-31T15:19:45.937Z,26.90
2017-07-31T15:22:14.597Z,27.50
2017-07-31T15:24:42.837Z,27.50
2017-07-31T15:27:11.092Z,27.20
2017-07-31T15:29:39.932Z,26.90
2017-07-31T15:32:08.174Z,26.90
2017-07-31T15:34:36.469Z,27.40
2017-07-31T15:37:04.777Z,27.30
2017-07-31T15:39:36.461Z,27.30
2017-07-31T15:42:04.729Z,27.30
2017-07-31T15:44:33.355Z,27.80
2017-07-31T15:47:01.602Z,27.90
2017-07-31T15:49:29.861Z,27.70
2017-07-31T15:51:58.101Z,28.20
2017-07-31T15:54:26.339Z,28.40
2017-07-31T15:56:54.768Z,28.90
2017-07-31T15:59:23.004Z,28.90
2017-07-31T16:01:51.260Z,28.90
2017-07-31T16:04:19.684Z,28.90
2017-07-31T16:06:47.918Z,28.80
2017-07-31T16:09:16.168Z,29.10
2017-07-31T16:11:44.433Z,29.00
2017-07-31T16:14:12.675Z,29.40
2017-07-31T16:16:40.909Z,29.20
2017-07-31T16:19:09.253Z,29.30
2017-07-31T16:21:37.517Z,29.40
2017-07-31T16:24:05.753Z,29.10
2017-07-31T16:26:34.162Z,29.20
2017-07-31T16:29:02.411Z,29.10
2017-07-31T16:31:30.656Z,29.40
2017-07-31T16:33:58.921Z,29.60
2017-07-31T16:36:27.177Z,30.10
2017-07-31T16:39:01.241Z,30.10
2017-07-31T16:41:47.582Z,29.70
2017-07-31T16:44:27.933Z,30.10
2017-07-31T16:46:56.175Z,30.10
2017-07-31T16:49:24.425Z,30.40
2017-07-31T16:51:52.725Z,30.30
2017-07-31T16:54:20.965Z,30.40
2017-07-31T16:56:49.200Z,30.60
2017-07-31T16:59:17.688Z,31.00
2017-07-31T17:01:45.929Z,31.30
2017-07-31T17:04:14.183Z,31.30
2017-07-31T17:06:42.844Z,32.20
2017-07-31T17:09:11.181Z,32.20
2017-07-31T17:11:39.428Z,32.20
2017-07-31T17:14:07.705Z,32.50
2017-07-31T17:16:36.911Z,32.60
2017-07-31T17:19:05.384Z,32.90
2017-07-31T17:21:34.008Z,33.40
2017-07-31T17:24:02.243Z,33.20
2017-07-31T17:26:30.963Z,33.70
2017-07-31T17:28:59.258Z,33.70
2017-07-31T17:31:27.547Z,33.80
2017-07-31T17:33:55.777Z,34.20
2017-07-31T17:36:24.280Z,34.40
2017-07-31T17:38:52.545Z,34.80
2017-07-31T17:41:20.831Z,35.30
2017-07-31T17:43:49.252Z,36.20
2017-07-31T17:46:17.712Z,36.50
2017-07-31T17:48:45.963Z,36.90
2017-07-31T17:51:14.254Z,36.80
2017-07-31T17:53:42.508Z,36.50
2017-07-31T17:56:10.741Z,36.90
2017-07-31T17:58:39.425Z,37.20
2017-07-31T18:01:07.656Z,37.40
2017-07-31T18:03:35.917Z,37.20
2017-07-31T18:06:04.349Z,37.20
2017-07-31T18:08:32.581Z,37.80
2017-07-31T18:11:00.972Z,37.90
2017-07-31T18:13:29.250Z,37.60
2017-07-31T18:15:57.484Z,38.10
2017-07-31T18:18:25.720Z,38.10
2017-07-31T18:20:54.028Z,38.40
2017-07-31T18:23:22.303Z,39.00
2017-07-31T18:25:50.930Z,39.40
2017-07-31T18:28:19.351Z,39.40
2017-07-31T18:30:47.616Z,39.60
2017-07-31T18:33:15.856Z,39.40
2017-07-31T18:35:44.117Z,39.70
2017-07-31T18:38:12.351Z,39.70
2017-07-31T18:40:40.983Z,40.20
2017-07-31T18:43:09.292Z,40.20
2017-07-31T18:45:37.533Z,40.00
2017-07-31T18:48:05.767Z,40.00
2017-07-31T18:50:34.436Z,40.50
2017-07-31T18:53:02.667Z,40.50
2017-07-31T18:55:30.911Z,40.30
2017-07-31T18:57:59.376Z,40.50
2017-07-31T19:00:27.635Z,40.60
2017-07-31T19:02:55.869Z,41.00
2017-07-31T19:05:24.132Z,41.30
2017-07-31T19:07:52.393Z,41.60
2017-07-31T19:10:21.011Z,41.50
2017-07-31T19:12:49.311Z,41.50
2017-07-31T19:15:17.812Z,41.50
2017-07-31T19:17:46.069Z,41.30
2017-07-31T19:20:14.573Z,41.80
2017-07-31T19:22:42.826Z,41.50
2017-07-31T19:25:11.138Z,41.30
2017-07-31T19:27:39.808Z,41.60
2017-07-31T19:30:08.048Z,41.60
2017-07-31T19:32:36.306Z,42.20
2017-07-31T19:35:04.575Z,42.50
2017-07-31T19:37:32.808Z,43.00
2017-07-31T19:40:01.388Z,43.40
2017-07-31T19:42:29.658Z,43.70
2017-07-31T19:44:57.892Z,43.70
2017-07-31T19:47:26.148Z,43.70
2017-07-31T19:49:54.589Z,43.40
2017-07-31T19:52:22.827Z,43.60
2017-07-31T19:54:51.072Z,43.70
2017-07-31T19:57:19.417Z,44.00
2017-07-31T19:59:47.655Z,44.30
2017-07-31T20:02:16.020Z,44.30
2017-07-31T20:04:44.472Z,44.60
2017-07-31T20:07:13.110Z,44.70
2017-07-31T20:09:41.349Z,44.70
2017-07-31T20:12:09.621Z,45.00
2017-07-31T20:14:38.259Z,44.90
2017-07-31T20:17:06.502Z,44.90
2017-07-31T20:19:34.770Z,44.70
2017-07-31T20:22:03.043Z,44.70
2017-07-31T20:24:31.278Z,45.20
2017-07-31T20:26:59.548Z,45.20
2017-07-31T20:29:27.791Z,45.30
2017-07-31T20:31:56.028Z,45.80
2017-07-31T20:34:24.911Z,45.80
2017-07-31T20:36:53.752Z,46.20
2017-07-31T20:39:22.003Z,46.20
2017-07-31T20:41:50.932Z,46.50
2017-07-31T20:44:19.176Z,46.80
2017-07-31T20:46:47.405Z,47.40
2017-07-31T20:49:15.671Z,47.70
2017-07-31T20:51:43.908Z,47.70
2017-07-31T20:54:12.193Z,48.00
2017-07-31T20:56:40.495Z,48.10
2017-07-31T20:59:08.760Z,48.60
2017-07-31T21:01:37.007Z,49.00
2017-07-31T21:04:05.597Z,50.10
2017-07-31T21:06:33.841Z,51.20
2017-07-31T21:09:02.073Z,51.40
2017-07-31T21:11:30.356Z,52.30
2017-07-31T21:14:03.403Z,52.90
2017-07-31T21:16:31.685Z,53.00
2017-07-31T21:18:59.921Z,53.00
2017-07-31T21:21:28.549Z,53.20
2017-07-31T21:23:56.989Z,53.20
2017-07-31T21:26:28.089Z,53.20
2017-07-31T21:29:00.044Z,53.20
2017-07-31T21:31:28.286Z,53.20
2017-07-31T21:33:56.533Z,53.00
2017-07-31T21:36:25.194Z,53.00
2017-07-31T21:39:00.297Z,52.90
2017-07-31T21:41:28.793Z,53.00
2017-07-31T21:43:57.024Z,52.60
2017-07-31T21:46:25.656Z,52.70
2017-07-31T21:48:54.069Z,52.70
2017-07-31T21:51:22.304Z,52.60
2017-07-31T21:53:50.550Z,52.10
2017-07-31T21:56:18.826Z,52.10
2017-07-31T21:58:47.070Z,52.10
2017-07-31T22:01:16.607Z,52.10
2017-07-31T22:03:45.225Z,52.40
2017-07-31T22:06:13.678Z,52.70
2017-07-31T22:08:41.924Z,52.90
2017-07-31T22:11:10.291Z,53.20
2017-07-31T22:13:38.561Z,53.30
2017-07-31T22:16:06.783Z,53.30
2017-07-31T22:18:35.059Z,53.30
2017-07-31T22:21:09.064Z,53.20
2017-07-31T22:23:37.327Z,53.00
2017-07-31T22:26:05.704Z,53.00
2017-07-31T22:28:34.265Z,53.00
2017-07-31T22:31:02.624Z,53.30
2017-07-31T22:33:30.865Z,53.80
2017-07-31T22:35:59.108Z,54.80
2017-07-31T22:38:28.245Z,55.50
2017-07-31T22:40:56.580Z,55.50
2017-07-31T22:43:24.886Z,55.80
2017-07-31T22:45:53.215Z,56.10
2017-07-31T22:48:21.568Z,56.30
2017-07-31T22:50:49.809Z,56.30
2017-07-31T22:53:18.468Z,56.30
2017-07-31T22:55:46.708Z,56.30
2017-07-31T22:58:14.947Z,56.40
2017-07-31T23:00:43.216Z,56.90
2017-07-31T23:03:11.460Z,57.00
2017-07-31T23:05:39.709Z,56.90
2017-07-31T23:08:08.953Z,57.20
2017-07-31T23:10:37.580Z,57.40
2017-07-31T23:13:05.823Z,57.40
2017-07-31T23:15:34.104Z,57.40
2017-07-31T23:18:02.380Z,57.90
2017-07-31T23:20:30.638Z,57.90
2017-07-31T23:22:59.819Z,58.20
2017-07-31T23:25:28.040Z,58.20
2017-07-31T23:27:56.297Z,58.50
2017-07-31T23:30:24.905Z,58.50
2017-07-31T23:32:53.159Z,58.50
2017-07-31T23:35:21.788Z,58.20
2017-07-31T23:37:50.226Z,58.20
2017-07-31T23:40:18.856Z,58.30
2017-07-31T23:42:47.365Z,58.30
2017-07-31T23:45:15.837Z,58.50
2017-07-31T23:47:44.084Z,58.50
2017-07-31T23:50:12.335Z,58.90
2017-07-31T23:52:41.560Z,58.90
2017-07-31T23:55:09.800Z,58.90
2017-07-31T23:57:38.048Z,58.80
